sensor_id;sensor_type;location;lat;lon;timestamp;P1;durP1;ratioP1;P2;durP2;ratioP2
56820;SDS011;42702;50.178;20.992;2022-11-21T00:01:15;155.90;;;61.50;;
56820;SDS011;42702;50.178;20.992;2022-11-21T00:03:48;185.60;;;69.00;;
56820;SDS011;42702;50.178;20.992;2022-11-21T00:06:17;120.10;;;50.80;;
56820;SDS011;42702;50.178;20.992;2022-11-21T00:08:46;116.50;;;46.90;;
56820;SDS011;42702;50.178;20.992;2022-11-21T00:11:14;113.10;;;46.00;;
56820;SDS011;42702;50.178;20.992;2022-11-21T00:13:43;118.00;;;46.60;;
56820;SDS011;42702;50.178;20.992;2022-11-21T00:16:12;108.00;;;47.30;;
56820;SDS011;42702;50.178;20.992;2022-11-21T00:18:42;114.30;;;47.40;;
56820;SDS011;42702;50.178;20.992;2022-11-21T00:21:11;108.30;;;45.00;;
56820;SDS011;42702;50.178;20.992;2022-11-21T00:23:42;107.00;;;43.80;;
56820;SDS011;42702;50.178;20.992;2022-11-21T00:26:11;114.00;;;45.90;;
56820;SDS011;42702;50.178;20.992;2022-11-21T00:28:41;126.80;;;49.60;;
56820;SDS011;42702;50.178;20.992;2022-11-21T00:31:17;114.70;;;46.80;;
56820;SDS011;42702;50.178;20.992;2022-11-21T00:33:47;102.50;;;42.10;;
56820;SDS011;42702;50.178;20.992;2022-11-21T00:36:15;106.90;;;42.30;;
56820;SDS011;42702;50.178;20.992;2022-11-21T00:38:43;105.80;;;45.30;;
56820;SDS011;42702;50.178;20.992;2022-11-21T00:41:11;116.60;;;49.00;;
56820;SDS011;42702;50.178;20.992;2022-11-21T00:43:40;104.60;;;47.20;;
56820;SDS011;42702;50.178;20.992;2022-11-21T00:46:08;124.60;;;48.30;;
56820;SDS011;42702;50.178;20.992;2022-11-21T00:48:36;150.60;;;51.30;;
56820;SDS011;42702;50.178;20.992;2022-11-21T00:51:04;102.40;;;41.40;;
56820;SDS011;42702;50.178;20.992;2022-11-21T00:53:32;111.90;;;42.20;;
56820;SDS011;42702;50.178;20.992;2022-11-21T00:56:01;105.20;;;42.10;;
56820;SDS011;42702;50.178;20.992;2022-11-21T00:58:29;154.60;;;52.40;;
56820;SDS011;42702;50.178;20.992;2022-11-21T01:01:01;153.10;;;57.20;;
56820;SDS011;42702;50.178;20.992;2022-11-21T01:03:41;96.80;;;41.20;;
56820;SDS011;42702;50.178;20.992;2022-11-21T01:06:11;79.20;;;35.30;;
56820;SDS011;42702;50.178;20.992;2022-11-21T01:08:41;83.50;;;36.10;;
56820;SDS011;42702;50.178;20.992;2022-11-21T01:11:12;74.10;;;33.90;;
56820;SDS011;42702;50.178;20.992;2022-11-21T01:13:44;94.20;;;37.00;;
56820;SDS011;42702;50.178;20.992;2022-11-21T01:18:42;94.00;;;34.90;;
56820;SDS011;42702;50.178;20.992;2022-11-21T01:23:42;81.00;;;34.00;;
56820;SDS011;42702;50.178;20.992;2022-11-21T01:26:12;88.90;;;36.80;;
56820;SDS011;42702;50.178;20.992;2022-11-21T01:28:42;83.40;;;34.10;;
56820;SDS011;42702;50.178;20.992;2022-11-21T01:31:11;94.50;;;35.40;;
56820;SDS011;42702;50.178;20.992;2022-11-21T01:33:41;82.40;;;34.80;;
56820;SDS011;42702;50.178;20.992;2022-11-21T01:36:19;79.20;;;34.10;;
56820;SDS011;42702;50.178;20.992;2022-11-21T01:38:53;75.80;;;33.20;;
56820;SDS011;42702;50.178;20.992;2022-11-21T01:41:25;75.70;;;35.00;;
56820;SDS011;42702;50.178;20.992;2022-11-21T01:46:41;85.20;;;35.10;;
56820;SDS011;42702;50.178;20.992;2022-11-21T01:51:51;78.90;;;35.60;;
56820;SDS011;42702;50.178;20.992;2022-11-21T01:54:27;86.80;;;35.60;;
56820;SDS011;42702;50.178;20.992;2022-11-21T02:02:32;77.70;;;32.40;;
56820;SDS011;42702;50.178;20.992;2022-11-21T02:05:04;86.40;;;33.90;;
56820;SDS011;42702;50.178;20.992;2022-11-21T02:07:35;69.70;;;31.50;;
56820;SDS011;42702;50.178;20.992;2022-11-21T02:10:08;67.70;;;30.30;;
56820;SDS011;42702;50.178;20.992;2022-11-21T02:12:38;78.20;;;32.30;;
56820;SDS011;42702;50.178;20.992;2022-11-21T02:15:12;75.70;;;33.90;;
56820;SDS011;42702;50.178;20.992;2022-11-21T02:17:40;82.60;;;37.10;;
56820;SDS011;42702;50.178;20.992;2022-11-21T02:20:10;99.80;;;36.40;;
56820;SDS011;42702;50.178;20.992;2022-11-21T02:25:28;77.60;;;33.70;;
56820;SDS011;42702;50.178;20.992;2022-11-21T02:28:05;83.80;;;34.80;;
56820;SDS011;42702;50.178;20.992;2022-11-21T02:30:45;76.70;;;33.10;;
56820;SDS011;42702;50.178;20.992;2022-11-21T02:33:14;79.30;;;33.20;;
56820;SDS011;42702;50.178;20.992;2022-11-21T02:35:42;69.60;;;33.30;;
56820;SDS011;42702;50.178;20.992;2022-11-21T02:38:18;69.80;;;32.40;;
56820;SDS011;42702;50.178;20.992;2022-11-21T02:40:51;75.20;;;33.60;;
56820;SDS011;42702;50.178;20.992;2022-11-21T02:43:27;72.90;;;31.90;;
56820;SDS011;42702;50.178;20.992;2022-11-21T02:46:02;72.80;;;32.60;;
56820;SDS011;42702;50.178;20.992;2022-11-21T02:48:30;73.80;;;32.60;;
56820;SDS011;42702;50.178;20.992;2022-11-21T02:50:58;119.10;;;48.20;;
56820;SDS011;42702;50.178;20.992;2022-11-21T02:53:27;76.60;;;34.40;;
56820;SDS011;42702;50.178;20.992;2022-11-21T02:55:55;78.20;;;32.70;;
56820;SDS011;42702;50.178;20.992;2022-11-21T02:58:23;65.70;;;30.00;;
56820;SDS011;42702;50.178;20.992;2022-11-21T03:00:51;66.00;;;28.80;;
56820;SDS011;42702;50.178;20.992;2022-11-21T03:03:22;64.10;;;27.30;;
56820;SDS011;42702;50.178;20.992;2022-11-21T03:05:50;59.70;;;28.80;;
56820;SDS011;42702;50.178;20.992;2022-11-21T03:08:18;68.20;;;29.70;;
56820;SDS011;42702;50.178;20.992;2022-11-21T03:10:46;73.90;;;31.70;;
56820;SDS011;42702;50.178;20.992;2022-11-21T03:13:14;75.60;;;32.20;;
56820;SDS011;42702;50.178;20.992;2022-11-21T03:15:42;82.20;;;31.60;;
56820;SDS011;42702;50.178;20.992;2022-11-21T03:18:11;79.10;;;30.90;;
56820;SDS011;42702;50.178;20.992;2022-11-21T03:20:39;75.40;;;32.30;;
56820;SDS011;42702;50.178;20.992;2022-11-21T03:23:07;65.80;;;30.80;;
56820;SDS011;42702;50.178;20.992;2022-11-21T03:25:35;66.70;;;29.30;;
56820;SDS011;42702;50.178;20.992;2022-11-21T03:28:03;65.20;;;28.00;;
56820;SDS011;42702;50.178;20.992;2022-11-21T03:30:32;64.30;;;28.90;;
56820;SDS011;42702;50.178;20.992;2022-11-21T03:33:00;64.70;;;27.50;;
56820;SDS011;42702;50.178;20.992;2022-11-21T03:35:28;65.10;;;27.30;;
56820;SDS011;42702;50.178;20.992;2022-11-21T03:37:56;62.90;;;27.40;;
56820;SDS011;42702;50.178;20.992;2022-11-21T03:40:24;74.00;;;28.40;;
56820;SDS011;42702;50.178;20.992;2022-11-21T03:42:52;75.00;;;30.70;;
56820;SDS011;42702;50.178;20.992;2022-11-21T03:45:20;72.40;;;32.20;;
56820;SDS011;42702;50.178;20.992;2022-11-21T03:47:48;69.30;;;31.90;;
56820;SDS011;42702;50.178;20.992;2022-11-21T03:50:16;63.70;;;26.10;;
56820;SDS011;42702;50.178;20.992;2022-11-21T03:52:45;60.70;;;27.60;;
56820;SDS011;42702;50.178;20.992;2022-11-21T03:55:14;59.70;;;26.60;;
56820;SDS011;42702;50.178;20.992;2022-11-21T03:57:42;59.80;;;25.80;;
56820;SDS011;42702;50.178;20.992;2022-11-21T04:00:10;54.40;;;25.00;;
56820;SDS011;42702;50.178;20.992;2022-11-21T04:02:39;58.30;;;25.40;;
56820;SDS011;42702;50.178;20.992;2022-11-21T04:05:07;62.90;;;26.10;;
56820;SDS011;42702;50.178;20.992;2022-11-21T04:07:36;62.30;;;25.80;;
56820;SDS011;42702;50.178;20.992;2022-11-21T04:10:05;51.10;;;24.80;;
56820;SDS011;42702;50.178;20.992;2022-11-21T04:12:33;53.90;;;23.70;;
56820;SDS011;42702;50.178;20.992;2022-11-21T04:15:02;48.80;;;23.70;;
56820;SDS011;42702;50.178;20.992;2022-11-21T04:17:37;57.00;;;23.00;;
56820;SDS011;42702;50.178;20.992;2022-11-21T04:20:06;49.50;;;20.80;;
56820;SDS011;42702;50.178;20.992;2022-11-21T04:22:35;47.20;;;21.20;;
56820;SDS011;42702;50.178;20.992;2022-11-21T04:25:03;46.80;;;21.50;;
56820;SDS011;42702;50.178;20.992;2022-11-21T04:27:32;49.30;;;21.80;;
56820;SDS011;42702;50.178;20.992;2022-11-21T04:30:00;43.10;;;20.50;;
56820;SDS011;42702;50.178;20.992;2022-11-21T04:32:28;45.90;;;21.70;;
56820;SDS011;42702;50.178;20.992;2022-11-21T04:34:57;43.30;;;20.50;;
56820;SDS011;42702;50.178;20.992;2022-11-21T04:37:25;47.50;;;21.60;;
56820;SDS011;42702;50.178;20.992;2022-11-21T04:39:53;48.30;;;22.20;;
56820;SDS011;42702;50.178;20.992;2022-11-21T04:42:21;38.50;;;19.90;;
56820;SDS011;42702;50.178;20.992;2022-11-21T04:44:49;46.90;;;20.30;;
56820;SDS011;42702;50.178;20.992;2022-11-21T04:47:17;43.00;;;20.20;;
56820;SDS011;42702;50.178;20.992;2022-11-21T04:49:45;48.90;;;20.80;;
56820;SDS011;42702;50.178;20.992;2022-11-21T04:52:13;45.70;;;20.40;;
56820;SDS011;42702;50.178;20.992;2022-11-21T04:54:41;45.00;;;20.80;;
56820;SDS011;42702;50.178;20.992;2022-11-21T04:57:10;37.50;;;19.80;;
56820;SDS011;42702;50.178;20.992;2022-11-21T04:59:38;40.00;;;20.10;;
56820;SDS011;42702;50.178;20.992;2022-11-21T05:02:06;39.70;;;19.60;;
56820;SDS011;42702;50.178;20.992;2022-11-21T05:04:34;47.30;;;21.40;;
56820;SDS011;42702;50.178;20.992;2022-11-21T05:07:02;47.00;;;21.30;;
56820;SDS011;42702;50.178;20.992;2022-11-21T05:09:30;47.80;;;19.90;;
56820;SDS011;42702;50.178;20.992;2022-11-21T05:11:59;47.50;;;21.70;;
56820;SDS011;42702;50.178;20.992;2022-11-21T05:14:45;41.90;;;21.10;;
56820;SDS011;42702;50.178;20.992;2022-11-21T05:17:13;46.80;;;22.70;;
56820;SDS011;42702;50.178;20.992;2022-11-21T05:19:42;46.70;;;23.20;;
56820;SDS011;42702;50.178;20.992;2022-11-21T05:22:10;48.70;;;23.70;;
56820;SDS011;42702;50.178;20.992;2022-11-21T05:24:39;50.70;;;23.00;;
56820;SDS011;42702;50.178;20.992;2022-11-21T05:27:07;98.90;;;49.80;;
56820;SDS011;42702;50.178;20.992;2022-11-21T05:29:35;51.00;;;25.20;;
56820;SDS011;42702;50.178;20.992;2022-11-21T05:32:03;57.30;;;23.80;;
56820;SDS011;42702;50.178;20.992;2022-11-21T05:34:32;52.60;;;23.90;;
56820;SDS011;42702;50.178;20.992;2022-11-21T05:37:00;54.10;;;29.60;;
56820;SDS011;42702;50.178;20.992;2022-11-21T05:39:28;47.30;;;22.50;;
56820;SDS011;42702;50.178;20.992;2022-11-21T05:41:56;51.30;;;26.70;;
56820;SDS011;42702;50.178;20.992;2022-11-21T05:44:29;49.00;;;23.70;;
56820;SDS011;42702;50.178;20.992;2022-11-21T05:46:58;47.40;;;23.60;;
56820;SDS011;42702;50.178;20.992;2022-11-21T05:49:26;52.20;;;23.20;;
56820;SDS011;42702;50.178;20.992;2022-11-21T05:51:54;44.50;;;22.40;;
56820;SDS011;42702;50.178;20.992;2022-11-21T05:54:22;52.40;;;25.10;;
56820;SDS011;42702;50.178;20.992;2022-11-21T05:56:50;48.60;;;22.90;;
56820;SDS011;42702;50.178;20.992;2022-11-21T05:59:18;51.90;;;24.50;;
56820;SDS011;42702;50.178;20.992;2022-11-21T06:01:47;56.50;;;24.80;;
56820;SDS011;42702;50.178;20.992;2022-11-21T06:04:34;74.70;;;30.90;;
56820;SDS011;42702;50.178;20.992;2022-11-21T06:07:02;82.90;;;33.70;;
56820;SDS011;42702;50.178;20.992;2022-11-21T06:09:32;79.20;;;31.20;;
56820;SDS011;42702;50.178;20.992;2022-11-21T06:12:00;82.20;;;35.20;;
56820;SDS011;42702;50.178;20.992;2022-11-21T06:14:28;107.70;;;44.90;;
56820;SDS011;42702;50.178;20.992;2022-11-21T06:16:57;117.40;;;50.60;;
56820;SDS011;42702;50.178;20.992;2022-11-21T06:19:25;87.50;;;40.30;;
56820;SDS011;42702;50.178;20.992;2022-11-21T06:21:53;91.00;;;41.40;;
56820;SDS011;42702;50.178;20.992;2022-11-21T06:24:21;93.90;;;38.80;;
56820;SDS011;42702;50.178;20.992;2022-11-21T06:26:49;70.40;;;32.80;;
56820;SDS011;42702;50.178;20.992;2022-11-21T06:29:17;72.30;;;31.20;;
56820;SDS011;42702;50.178;20.992;2022-11-21T06:31:49;93.40;;;41.90;;
56820;SDS011;42702;50.178;20.992;2022-11-21T06:34:17;105.80;;;46.50;;
56820;SDS011;42702;50.178;20.992;2022-11-21T06:36:45;101.20;;;41.90;;
56820;SDS011;42702;50.178;20.992;2022-11-21T06:39:13;71.40;;;32.20;;
56820;SDS011;42702;50.178;20.992;2022-11-21T06:41:41;59.90;;;28.90;;
56820;SDS011;42702;50.178;20.992;2022-11-21T06:44:09;74.10;;;34.40;;
56820;SDS011;42702;50.178;20.992;2022-11-21T06:46:38;98.00;;;43.60;;
56820;SDS011;42702;50.178;20.992;2022-11-21T06:49:06;134.70;;;60.50;;
56820;SDS011;42702;50.178;20.992;2022-11-21T06:51:34;127.80;;;54.10;;
56820;SDS011;42702;50.178;20.992;2022-11-21T06:54:02;111.20;;;51.10;;
56820;SDS011;42702;50.178;20.992;2022-11-21T06:56:30;74.20;;;35.40;;
56820;SDS011;42702;50.178;20.992;2022-11-21T06:58:59;47.80;;;22.90;;
56820;SDS011;42702;50.178;20.992;2022-11-21T07:01:27;43.90;;;21.60;;
56820;SDS011;42702;50.178;20.992;2022-11-21T07:03:55;39.60;;;20.90;;
56820;SDS011;42702;50.178;20.992;2022-11-21T07:06:23;50.90;;;22.20;;
56820;SDS011;42702;50.178;20.992;2022-11-21T07:08:52;72.50;;;29.20;;
56820;SDS011;42702;50.178;20.992;2022-11-21T07:11:43;55.70;;;29.10;;
56820;SDS011;42702;50.178;20.992;2022-11-21T07:14:11;64.90;;;26.70;;
56820;SDS011;42702;50.178;20.992;2022-11-21T07:16:39;101.40;;;35.20;;
56820;SDS011;42702;50.178;20.992;2022-11-21T07:19:07;112.60;;;36.80;;
56820;SDS011;42702;50.178;20.992;2022-11-21T07:21:36;73.40;;;29.80;;
56820;SDS011;42702;50.178;20.992;2022-11-21T07:24:04;87.10;;;34.40;;
56820;SDS011;42702;50.178;20.992;2022-11-21T07:26:33;86.90;;;34.80;;
56820;SDS011;42702;50.178;20.992;2022-11-21T07:29:01;102.50;;;38.30;;
56820;SDS011;42702;50.178;20.992;2022-11-21T07:31:29;60.70;;;23.80;;
56820;SDS011;42702;50.178;20.992;2022-11-21T07:33:57;54.40;;;23.50;;
56820;SDS011;42702;50.178;20.992;2022-11-21T07:36:25;44.90;;;20.20;;
56820;SDS011;42702;50.178;20.992;2022-11-21T07:38:53;50.50;;;21.50;;
56820;SDS011;42702;50.178;20.992;2022-11-21T07:41:22;54.20;;;20.60;;
56820;SDS011;42702;50.178;20.992;2022-11-21T07:43:50;49.70;;;18.80;;
56820;SDS011;42702;50.178;20.992;2022-11-21T07:46:18;34.50;;;16.90;;
56820;SDS011;42702;50.178;20.992;2022-11-21T07:48:46;31.10;;;14.50;;
56820;SDS011;42702;50.178;20.992;2022-11-21T07:51:14;32.70;;;16.30;;
56820;SDS011;42702;50.178;20.992;2022-11-21T07:53:42;75.90;;;25.70;;
56820;SDS011;42702;50.178;20.992;2022-11-21T07:56:10;39.40;;;18.20;;
56820;SDS011;42702;50.178;20.992;2022-11-21T07:58:38;37.30;;;18.20;;
56820;SDS011;42702;50.178;20.992;2022-11-21T08:01:08;37.10;;;17.80;;
56820;SDS011;42702;50.178;20.992;2022-11-21T08:03:37;52.20;;;27.00;;
56820;SDS011;42702;50.178;20.992;2022-11-21T08:06:05;41.90;;;19.80;;
56820;SDS011;42702;50.178;20.992;2022-11-21T08:08:33;133.50;;;52.30;;
56820;SDS011;42702;50.178;20.992;2022-11-21T08:11:05;72.20;;;29.50;;
56820;SDS011;42702;50.178;20.992;2022-11-21T08:13:34;74.70;;;27.20;;
56820;SDS011;42702;50.178;20.992;2022-11-21T08:16:03;51.00;;;18.30;;
56820;SDS011;42702;50.178;20.992;2022-11-21T08:18:31;93.00;;;34.70;;
56820;SDS011;42702;50.178;20.992;2022-11-21T08:21:00;111.60;;;35.70;;
56820;SDS011;42702;50.178;20.992;2022-11-21T08:23:30;101.70;;;36.70;;
56820;SDS011;42702;50.178;20.992;2022-11-21T08:25:58;116.20;;;44.10;;
56820;SDS011;42702;50.178;20.992;2022-11-21T08:28:27;82.10;;;36.10;;
56820;SDS011;42702;50.178;20.992;2022-11-21T08:30:55;64.40;;;27.00;;
56820;SDS011;42702;50.178;20.992;2022-11-21T08:33:23;71.00;;;28.40;;
56820;SDS011;42702;50.178;20.992;2022-11-21T08:35:52;74.60;;;30.90;;
56820;SDS011;42702;50.178;20.992;2022-11-21T08:38:20;64.00;;;30.00;;
56820;SDS011;42702;50.178;20.992;2022-11-21T08:40:48;99.90;;;32.00;;
56820;SDS011;42702;50.178;20.992;2022-11-21T08:43:43;119.90;;;39.00;;
56820;SDS011;42702;50.178;20.992;2022-11-21T08:46:12;95.10;;;32.60;;
56820;SDS011;42702;50.178;20.992;2022-11-21T08:48:40;81.40;;;31.50;;
56820;SDS011;42702;50.178;20.992;2022-11-21T08:51:08;68.60;;;28.20;;
56820;SDS011;42702;50.178;20.992;2022-11-21T08:53:36;53.20;;;22.80;;
56820;SDS011;42702;50.178;20.992;2022-11-21T08:56:04;38.40;;;19.80;;
56820;SDS011;42702;50.178;20.992;2022-11-21T08:58:33;41.70;;;22.80;;
56820;SDS011;42702;50.178;20.992;2022-11-21T09:01:01;24.10;;;13.60;;
56820;SDS011;42702;50.178;20.992;2022-11-21T09:03:29;32.50;;;16.80;;
56820;SDS011;42702;50.178;20.992;2022-11-21T09:05:58;27.90;;;15.10;;
56820;SDS011;42702;50.178;20.992;2022-11-21T09:08:27;37.50;;;18.10;;
56820;SDS011;42702;50.178;20.992;2022-11-21T09:10:56;122.00;;;49.80;;
56820;SDS011;42702;50.178;20.992;2022-11-21T09:13:26;129.50;;;46.00;;
56820;SDS011;42702;50.178;20.992;2022-11-21T09:15:56;96.30;;;36.10;;
56820;SDS011;42702;50.178;20.992;2022-11-21T09:18:50;60.30;;;23.20;;
56820;SDS011;42702;50.178;20.992;2022-11-21T09:21:19;51.60;;;20.40;;
56820;SDS011;42702;50.178;20.992;2022-11-21T09:23:48;25.70;;;13.70;;
56820;SDS011;42702;50.178;20.992;2022-11-21T09:26:16;61.80;;;22.60;;
56820;SDS011;42702;50.178;20.992;2022-11-21T09:28:44;63.50;;;22.80;;
56820;SDS011;42702;50.178;20.992;2022-11-21T09:31:13;30.90;;;14.80;;
56820;SDS011;42702;50.178;20.992;2022-11-21T09:33:41;85.70;;;31.40;;
56820;SDS011;42702;50.178;20.992;2022-11-21T09:36:09;67.00;;;28.30;;
56820;SDS011;42702;50.178;20.992;2022-11-21T09:38:38;73.50;;;24.60;;
56820;SDS011;42702;50.178;20.992;2022-11-21T09:44:30;60.70;;;23.40;;
56820;SDS011;42702;50.178;20.992;2022-11-21T09:47:10;63.10;;;21.90;;
56820;SDS011;42702;50.178;20.992;2022-11-21T09:49:55;46.80;;;18.60;;
56820;SDS011;42702;50.178;20.992;2022-11-21T09:52:49;42.30;;;15.30;;
56820;SDS011;42702;50.178;20.992;2022-11-21T09:58:03;55.40;;;19.20;;
56820;SDS011;42702;50.178;20.992;2022-11-21T10:00:36;29.60;;;13.20;;
56820;SDS011;42702;50.178;20.992;2022-11-21T10:06:54;40.20;;;18.50;;
56820;SDS011;42702;50.178;20.992;2022-11-21T10:26:43;36.30;;;14.20;;
56820;SDS011;42702;50.178;20.992;2022-11-21T10:32:35;45.20;;;18.30;;
56820;SDS011;42702;50.178;20.992;2022-11-21T10:35:16;117.70;;;40.50;;
56820;SDS011;42702;50.178;20.992;2022-11-21T10:37:50;93.90;;;31.50;;
56820;SDS011;42702;50.178;20.992;2022-11-21T10:40:31;84.30;;;30.60;;
56820;SDS011;42702;50.178;20.992;2022-11-21T10:46:09;80.70;;;31.60;;
56820;SDS011;42702;50.178;20.992;2022-11-21T10:48:37;81.90;;;27.30;;
56820;SDS011;42702;50.178;20.992;2022-11-21T10:53:39;55.40;;;19.20;;
56820;SDS011;42702;50.178;20.992;2022-11-21T10:56:34;49.40;;;26.50;;
56820;SDS011;42702;50.178;20.992;2022-11-21T10:59:10;48.40;;;17.00;;
56820;SDS011;42702;50.178;20.992;2022-11-21T11:04:21;34.60;;;13.10;;
56820;SDS011;42702;50.178;20.992;2022-11-21T11:06:55;35.90;;;13.20;;
56820;SDS011;42702;50.178;20.992;2022-11-21T11:09:31;37.50;;;14.50;;
56820;SDS011;42702;50.178;20.992;2022-11-21T11:14:51;39.50;;;17.80;;
56820;SDS011;42702;50.178;20.992;2022-11-21T11:17:26;51.20;;;20.60;;
56820;SDS011;42702;50.178;20.992;2022-11-21T11:19:59;39.00;;;16.80;;
56820;SDS011;42702;50.178;20.992;2022-11-21T11:22:48;28.80;;;13.80;;
56820;SDS011;42702;50.178;20.992;2022-11-21T11:25:16;38.80;;;19.60;;
56820;SDS011;42702;50.178;20.992;2022-11-21T11:27:44;52.00;;;20.40;;
56820;SDS011;42702;50.178;20.992;2022-11-21T11:30:14;53.00;;;22.30;;
56820;SDS011;42702;50.178;20.992;2022-11-21T11:32:44;53.60;;;22.20;;
56820;SDS011;42702;50.178;20.992;2022-11-21T11:37:59;57.90;;;21.30;;
56820;SDS011;42702;50.178;20.992;2022-11-21T11:40:40;39.10;;;17.10;;
56820;SDS011;42702;50.178;20.992;2022-11-21T11:49:37;23.20;;;10.80;;
56820;SDS011;42702;50.178;20.992;2022-11-21T11:55:51;20.30;;;10.70;;
56820;SDS011;42702;50.178;20.992;2022-11-21T12:01:21;29.10;;;12.60;;
56820;SDS011;42702;50.178;20.992;2022-11-21T12:04:24;72.70;;;28.10;;
56820;SDS011;42702;50.178;20.992;2022-11-21T12:07:04;165.40;;;67.10;;
56820;SDS011;42702;50.178;20.992;2022-11-21T12:10:11;120.50;;;48.80;;
56820;SDS011;42702;50.178;20.992;2022-11-21T12:12:47;103.30;;;43.50;;
56820;SDS011;42702;50.178;20.992;2022-11-21T12:23:26;22.30;;;12.90;;
56820;SDS011;42702;50.178;20.992;2022-11-21T12:29:05;24.10;;;11.20;;
56820;SDS011;42702;50.178;20.992;2022-11-21T12:32:16;58.40;;;22.20;;
56820;SDS011;42702;50.178;20.992;2022-11-21T12:46:09;211.90;;;44.50;;
56820;SDS011;42702;50.178;20.992;2022-11-21T12:48:50;154.00;;;33.70;;
56820;SDS011;42702;50.178;20.992;2022-11-21T12:55:31;18.40;;;9.10;;
56820;SDS011;42702;50.178;20.992;2022-11-21T13:00:56;13.80;;;7.40;;
56820;SDS011;42702;50.178;20.992;2022-11-21T13:06:22;115.40;;;21.90;;
56820;SDS011;42702;50.178;20.992;2022-11-21T13:09:12;165.50;;;32.80;;
56820;SDS011;42702;50.178;20.992;2022-11-21T13:11:47;76.60;;;17.30;;
56820;SDS011;42702;50.178;20.992;2022-11-21T13:14:33;54.30;;;15.80;;
56820;SDS011;42702;50.178;20.992;2022-11-21T13:20:57;31.10;;;13.50;;
56820;SDS011;42702;50.178;20.992;2022-11-21T13:23:00;23.40;;;11.50;;
56820;SDS011;42702;50.178;20.992;2022-11-21T13:25:42;51.90;;;23.60;;
56820;SDS011;42702;50.178;20.992;2022-11-21T13:30:45;39.60;;;14.00;;
56820;SDS011;42702;50.178;20.992;2022-11-21T14:14:27;42.90;;;22.10;;
56820;SDS011;42702;50.178;20.992;2022-11-21T14:19:36;91.10;;;37.90;;
56820;SDS011;42702;50.178;20.992;2022-11-21T14:22:42;62.90;;;30.00;;
56820;SDS011;42702;50.178;20.992;2022-11-21T14:25:22;56.50;;;27.10;;
56820;SDS011;42702;50.178;20.992;2022-11-21T14:27:59;53.10;;;25.00;;
56820;SDS011;42702;50.178;20.992;2022-11-21T14:30:31;64.10;;;29.00;;
56820;SDS011;42702;50.178;20.992;2022-11-21T14:38:49;104.60;;;41.20;;
56820;SDS011;42702;50.178;20.992;2022-11-21T14:41:39;117.70;;;46.50;;
56820;SDS011;42702;50.178;20.992;2022-11-21T14:46:38;143.70;;;51.20;;
56820;SDS011;42702;50.178;20.992;2022-11-21T14:51:50;218.10;;;79.30;;
56820;SDS011;42702;50.178;20.992;2022-11-21T14:54:39;221.10;;;81.50;;
56820;SDS011;42702;50.178;20.992;2022-11-21T14:57:35;189.80;;;69.30;;
56820;SDS011;42702;50.178;20.992;2022-11-21T15:00:10;166.00;;;67.70;;
56820;SDS011;42702;50.178;20.992;2022-11-21T15:03:14;121.80;;;57.50;;
56820;SDS011;42702;50.178;20.992;2022-11-21T15:05:46;111.90;;;52.50;;
56820;SDS011;42702;50.178;20.992;2022-11-21T15:08:35;89.10;;;43.90;;
56820;SDS011;42702;50.178;20.992;2022-11-21T15:11:30;97.10;;;39.10;;
56820;SDS011;42702;50.178;20.992;2022-11-21T15:14:06;211.20;;;60.00;;
56820;SDS011;42702;50.178;20.992;2022-11-21T15:16:53;328.30;;;78.80;;
56820;SDS011;42702;50.178;20.992;2022-11-21T15:19:25;286.00;;;79.60;;
56820;SDS011;42702;50.178;20.992;2022-11-21T15:21:56;196.40;;;64.40;;
56820;SDS011;42702;50.178;20.992;2022-11-21T15:26:55;151.00;;;62.90;;
56820;SDS011;42702;50.178;20.992;2022-11-21T15:29:24;191.00;;;73.30;;
56820;SDS011;42702;50.178;20.992;2022-11-21T15:32:09;188.30;;;87.50;;
56820;SDS011;42702;50.178;20.992;2022-11-21T15:34:43;97.40;;;46.50;;
56820;SDS011;42702;50.178;20.992;2022-11-21T15:37:13;106.10;;;46.70;;
56820;SDS011;42702;50.178;20.992;2022-11-21T15:39:44;111.10;;;47.50;;
56820;SDS011;42702;50.178;20.992;2022-11-21T15:45:05;154.60;;;62.70;;
56820;SDS011;42702;50.178;20.992;2022-11-21T15:47:47;143.80;;;63.90;;
56820;SDS011;42702;50.178;20.992;2022-11-21T15:50:16;136.90;;;66.70;;
56820;SDS011;42702;50.178;20.992;2022-11-21T15:52:45;115.90;;;57.80;;
56820;SDS011;42702;50.178;20.992;2022-11-21T15:55:19;108.70;;;55.20;;
56820;SDS011;42702;50.178;20.992;2022-11-21T15:57:49;113.40;;;57.00;;
56820;SDS011;42702;50.178;20.992;2022-11-21T16:00:18;130.20;;;62.00;;
56820;SDS011;42702;50.178;20.992;2022-11-21T16:02:46;120.80;;;61.50;;
56820;SDS011;42702;50.178;20.992;2022-11-21T16:05:15;123.60;;;59.80;;
56820;SDS011;42702;50.178;20.992;2022-11-21T16:07:43;119.00;;;55.20;;
56820;SDS011;42702;50.178;20.992;2022-11-21T16:10:12;123.20;;;57.90;;
56820;SDS011;42702;50.178;20.992;2022-11-21T16:12:52;143.40;;;60.50;;
56820;SDS011;42702;50.178;20.992;2022-11-21T16:15:20;172.20;;;68.20;;
56820;SDS011;42702;50.178;20.992;2022-11-21T16:17:49;151.40;;;70.40;;
56820;SDS011;42702;50.178;20.992;2022-11-21T16:20:18;144.50;;;64.30;;
56820;SDS011;42702;50.178;20.992;2022-11-21T16:22:46;175.00;;;69.50;;
56820;SDS011;42702;50.178;20.992;2022-11-21T16:25:16;210.40;;;77.30;;
56820;SDS011;42702;50.178;20.992;2022-11-21T16:27:45;193.20;;;74.70;;
56820;SDS011;42702;50.178;20.992;2022-11-21T16:30:14;231.80;;;86.30;;
56820;SDS011;42702;50.178;20.992;2022-11-21T16:32:42;231.30;;;88.30;;
56820;SDS011;42702;50.178;20.992;2022-11-21T16:35:10;243.90;;;94.20;;
56820;SDS011;42702;50.178;20.992;2022-11-21T16:37:38;216.70;;;88.90;;
56820;SDS011;42702;50.178;20.992;2022-11-21T16:40:08;233.70;;;89.80;;
56820;SDS011;42702;50.178;20.992;2022-11-21T16:42:36;204.10;;;84.10;;
56820;SDS011;42702;50.178;20.992;2022-11-21T16:45:05;191.50;;;84.50;;
56820;SDS011;42702;50.178;20.992;2022-11-21T16:47:34;151.30;;;66.20;;
56820;SDS011;42702;50.178;20.992;2022-11-21T16:50:04;147.60;;;63.50;;
56820;SDS011;42702;50.178;20.992;2022-11-21T16:52:32;197.80;;;76.10;;
56820;SDS011;42702;50.178;20.992;2022-11-21T16:55:02;202.50;;;79.00;;
56820;SDS011;42702;50.178;20.992;2022-11-21T16:57:31;240.80;;;84.80;;
56820;SDS011;42702;50.178;20.992;2022-11-21T17:00:00;281.90;;;93.50;;
56820;SDS011;42702;50.178;20.992;2022-11-21T17:02:28;304.30;;;97.50;;
56820;SDS011;42702;50.178;20.992;2022-11-21T17:04:57;218.70;;;84.90;;
56820;SDS011;42702;50.178;20.992;2022-11-21T17:07:25;252.80;;;105.30;;
56820;SDS011;42702;50.178;20.992;2022-11-21T17:09:53;184.10;;;82.20;;
56820;SDS011;42702;50.178;20.992;2022-11-21T17:12:21;172.90;;;73.10;;
56820;SDS011;42702;50.178;20.992;2022-11-21T17:14:50;173.90;;;79.00;;
56820;SDS011;42702;50.178;20.992;2022-11-21T17:17:18;186.20;;;75.80;;
56820;SDS011;42702;50.178;20.992;2022-11-21T17:19:46;223.10;;;87.90;;
56820;SDS011;42702;50.178;20.992;2022-11-21T17:22:15;187.50;;;89.20;;
56820;SDS011;42702;50.178;20.992;2022-11-21T17:24:51;197.90;;;93.00;;